Terminal Aerodrome Forecast
Issued by NWS Tampa Bay Area, FL

Home | Current Version | Previous Version | Text Only | Print | Product List | Glossary On
Versions: 1 2 3 4 5 6 7 8 9 10 11 12 13
000
FTUS42 KTBW 220500
TAFSRQ
TAF
KSRQ 220530Z 2206/2306 VRB03KT P6SM FEW020 SCT060 BKN250
     FM221200 11004KT P6SM VCSH SCT025 BKN070 BKN250
     FM221800 23005KT P6SM VCTS SCT035CB BKN080
     FM230300 10004KT P6SM SCT050 BKN070=

USA.gov is the U.S. government's official web portal to all federal, state and local government web resources and services.